sensor_id;sensor_type;location;lat;lon;timestamp;P1;durP1;ratioP1;P2;durP2;ratioP2
24157;SDS011;12316;50.904;4.200;2024-01-30T00:01:16;10.68;;;7.80;;
24157;SDS011;12316;50.904;4.200;2024-01-30T00:03:42;12.05;;;8.02;;
24157;SDS011;12316;50.904;4.200;2024-01-30T00:06:08;12.13;;;8.10;;
24157;SDS011;12316;50.904;4.200;2024-01-30T00:08:34;13.23;;;8.05;;
24157;SDS011;12316;50.904;4.200;2024-01-30T00:11:00;9.40;;;7.47;;
24157;SDS011;12316;50.904;4.200;2024-01-30T00:13:26;14.32;;;8.15;;
24157;SDS011;12316;50.904;4.200;2024-01-30T00:15:52;12.05;;;8.20;;
24157;SDS011;12316;50.904;4.200;2024-01-30T00:18:17;12.35;;;8.48;;
24157;SDS011;12316;50.904;4.200;2024-01-30T00:20:43;11.82;;;7.82;;
24157;SDS011;12316;50.904;4.200;2024-01-30T00:23:09;13.23;;;7.95;;
24157;SDS011;12316;50.904;4.200;2024-01-30T00:25:35;15.00;;;8.38;;
24157;SDS011;12316;50.904;4.200;2024-01-30T00:28:00;11.10;;;8.00;;
24157;SDS011;12316;50.904;4.200;2024-01-30T00:30:26;11.27;;;7.95;;
24157;SDS011;12316;50.904;4.200;2024-01-30T00:32:53;13.73;;;8.18;;
24157;SDS011;12316;50.904;4.200;2024-01-30T00:35:19;12.48;;;8.23;;
24157;SDS011;12316;50.904;4.200;2024-01-30T00:37:45;13.88;;;8.55;;
24157;SDS011;12316;50.904;4.200;2024-01-30T00:40:10;13.43;;;8.35;;
24157;SDS011;12316;50.904;4.200;2024-01-30T00:42:41;14.10;;;8.18;;
24157;SDS011;12316;50.904;4.200;2024-01-30T00:45:11;15.07;;;8.45;;
24157;SDS011;12316;50.904;4.200;2024-01-30T00:47:41;16.20;;;9.00;;
24157;SDS011;12316;50.904;4.200;2024-01-30T00:50:07;12.73;;;8.60;;
24157;SDS011;12316;50.904;4.200;2024-01-30T00:52:33;16.40;;;8.30;;
24157;SDS011;12316;50.904;4.200;2024-01-30T00:54:59;13.15;;;8.60;;
24157;SDS011;12316;50.904;4.200;2024-01-30T00:57:25;13.45;;;8.27;;
24157;SDS011;12316;50.904;4.200;2024-01-30T00:59:52;12.15;;;8.13;;
24157;SDS011;12316;50.904;4.200;2024-01-30T01:02:17;16.48;;;8.35;;
24157;SDS011;12316;50.904;4.200;2024-01-30T01:04:43;15.57;;;8.95;;
24157;SDS011;12316;50.904;4.200;2024-01-30T01:07:09;12.25;;;8.43;;
24157;SDS011;12316;50.904;4.200;2024-01-30T01:09:35;13.25;;;8.10;;
24157;SDS011;12316;50.904;4.200;2024-01-30T01:12:01;12.20;;;7.85;;
24157;SDS011;12316;50.904;4.200;2024-01-30T01:14:27;13.65;;;7.93;;
24157;SDS011;12316;50.904;4.200;2024-01-30T01:16:53;12.40;;;7.72;;
24157;SDS011;12316;50.904;4.200;2024-01-30T01:19:19;13.25;;;8.00;;
24157;SDS011;12316;50.904;4.200;2024-01-30T01:21:44;12.27;;;7.85;;
24157;SDS011;12316;50.904;4.200;2024-01-30T01:24:10;13.57;;;8.32;;
24157;SDS011;12316;50.904;4.200;2024-01-30T01:26:36;15.48;;;8.63;;
24157;SDS011;12316;50.904;4.200;2024-01-30T01:29:01;13.70;;;8.40;;
24157;SDS011;12316;50.904;4.200;2024-01-30T01:31:29;12.23;;;8.07;;
24157;SDS011;12316;50.904;4.200;2024-01-30T01:33:55;18.63;;;8.32;;
24157;SDS011;12316;50.904;4.200;2024-01-30T01:36:20;13.02;;;8.50;;
24157;SDS011;12316;50.904;4.200;2024-01-30T01:38:46;14.25;;;8.50;;
24157;SDS011;12316;50.904;4.200;2024-01-30T01:41:12;12.60;;;7.90;;
24157;SDS011;12316;50.904;4.200;2024-01-30T01:43:38;13.45;;;8.38;;
24157;SDS011;12316;50.904;4.200;2024-01-30T01:46:04;11.63;;;7.68;;
24157;SDS011;12316;50.904;4.200;2024-01-30T01:48:31;14.57;;;8.45;;
24157;SDS011;12316;50.904;4.200;2024-01-30T01:50:57;11.45;;;8.10;;
24157;SDS011;12316;50.904;4.200;2024-01-30T01:53:24;14.85;;;8.27;;
24157;SDS011;12316;50.904;4.200;2024-01-30T01:55:49;12.98;;;8.13;;
24157;SDS011;12316;50.904;4.200;2024-01-30T01:58:19;12.55;;;7.22;;
24157;SDS011;12316;50.904;4.200;2024-01-30T02:00:47;11.75;;;8.00;;
24157;SDS011;12316;50.904;4.200;2024-01-30T02:03:13;11.18;;;7.72;;
24157;SDS011;12316;50.904;4.200;2024-01-30T02:05:42;13.13;;;8.02;;
24157;SDS011;12316;50.904;4.200;2024-01-30T02:08:07;14.52;;;8.68;;
24157;SDS011;12316;50.904;4.200;2024-01-30T02:10:34;12.98;;;8.00;;
24157;SDS011;12316;50.904;4.200;2024-01-30T02:12:59;13.25;;;8.20;;
24157;SDS011;12316;50.904;4.200;2024-01-30T02:15:25;12.55;;;8.02;;
24157;SDS011;12316;50.904;4.200;2024-01-30T02:17:51;12.75;;;8.43;;
24157;SDS011;12316;50.904;4.200;2024-01-30T02:20:16;12.85;;;8.20;;
24157;SDS011;12316;50.904;4.200;2024-01-30T02:22:42;13.13;;;7.65;;
24157;SDS011;12316;50.904;4.200;2024-01-30T02:25:08;12.00;;;7.65;;
24157;SDS011;12316;50.904;4.200;2024-01-30T02:27:34;14.48;;;8.38;;
24157;SDS011;12316;50.904;4.200;2024-01-30T02:29:59;14.27;;;8.77;;
24157;SDS011;12316;50.904;4.200;2024-01-30T02:32:25;14.15;;;8.55;;
24157;SDS011;12316;50.904;4.200;2024-01-30T02:34:50;12.70;;;8.00;;
24157;SDS011;12316;50.904;4.200;2024-01-30T02:37:16;14.07;;;8.57;;
24157;SDS011;12316;50.904;4.200;2024-01-30T02:39:42;16.88;;;8.73;;
24157;SDS011;12316;50.904;4.200;2024-01-30T02:42:07;12.07;;;8.10;;
24157;SDS011;12316;50.904;4.200;2024-01-30T02:44:33;14.43;;;8.13;;
24157;SDS011;12316;50.904;4.200;2024-01-30T02:46:59;16.48;;;8.30;;
24157;SDS011;12316;50.904;4.200;2024-01-30T02:49:24;13.13;;;7.97;;
24157;SDS011;12316;50.904;4.200;2024-01-30T02:51:51;11.65;;;7.85;;
24157;SDS011;12316;50.904;4.200;2024-01-30T02:54:17;13.40;;;8.13;;
24157;SDS011;12316;50.904;4.200;2024-01-30T02:56:43;12.70;;;8.32;;
24157;SDS011;12316;50.904;4.200;2024-01-30T02:59:08;12.82;;;7.70;;
24157;SDS011;12316;50.904;4.200;2024-01-30T03:01:41;13.73;;;8.35;;
24157;SDS011;12316;50.904;4.200;2024-01-30T03:04:08;11.57;;;8.07;;
24157;SDS011;12316;50.904;4.200;2024-01-30T03:06:33;12.35;;;7.95;;
24157;SDS011;12316;50.904;4.200;2024-01-30T03:08:59;11.98;;;7.65;;
24157;SDS011;12316;50.904;4.200;2024-01-30T03:11:25;12.90;;;8.10;;
24157;SDS011;12316;50.904;4.200;2024-01-30T03:13:51;13.23;;;7.97;;
24157;SDS011;12316;50.904;4.200;2024-01-30T03:16:17;12.10;;;7.97;;
24157;SDS011;12316;50.904;4.200;2024-01-30T03:18:42;13.77;;;7.90;;
24157;SDS011;12316;50.904;4.200;2024-01-30T03:21:08;13.35;;;7.63;;
24157;SDS011;12316;50.904;4.200;2024-01-30T03:23:34;15.35;;;8.23;;
24157;SDS011;12316;50.904;4.200;2024-01-30T03:25:59;15.30;;;8.18;;
24157;SDS011;12316;50.904;4.200;2024-01-30T03:28:25;14.38;;;7.97;;
24157;SDS011;12316;50.904;4.200;2024-01-30T03:30:50;13.50;;;7.72;;
24157;SDS011;12316;50.904;4.200;2024-01-30T03:33:16;16.58;;;8.10;;
24157;SDS011;12316;50.904;4.200;2024-01-30T03:35:41;12.95;;;8.18;;
24157;SDS011;12316;50.904;4.200;2024-01-30T03:38:07;11.90;;;7.57;;
24157;SDS011;12316;50.904;4.200;2024-01-30T03:40:33;13.65;;;8.20;;
24157;SDS011;12316;50.904;4.200;2024-01-30T03:42:59;13.75;;;8.32;;
24157;SDS011;12316;50.904;4.200;2024-01-30T03:45:24;12.77;;;7.88;;
24157;SDS011;12316;50.904;4.200;2024-01-30T03:47:50;13.55;;;7.88;;
24157;SDS011;12316;50.904;4.200;2024-01-30T03:50:15;11.23;;;7.88;;
24157;SDS011;12316;50.904;4.200;2024-01-30T03:52:41;11.55;;;7.57;;
24157;SDS011;12316;50.904;4.200;2024-01-30T03:55:07;13.55;;;8.20;;
24157;SDS011;12316;50.904;4.200;2024-01-30T03:57:33;14.15;;;8.07;;
24157;SDS011;12316;50.904;4.200;2024-01-30T03:59:58;13.40;;;7.38;;
24157;SDS011;12316;50.904;4.200;2024-01-30T04:02:24;13.18;;;7.72;;
24157;SDS011;12316;50.904;4.200;2024-01-30T04:04:49;13.45;;;7.30;;
24157;SDS011;12316;50.904;4.200;2024-01-30T04:07:15;12.45;;;7.35;;
24157;SDS011;12316;50.904;4.200;2024-01-30T04:09:41;11.35;;;7.75;;
24157;SDS011;12316;50.904;4.200;2024-01-30T04:12:06;11.13;;;7.85;;
24157;SDS011;12316;50.904;4.200;2024-01-30T04:14:32;10.55;;;7.55;;
24157;SDS011;12316;50.904;4.200;2024-01-30T04:16:58;13.07;;;7.70;;
24157;SDS011;12316;50.904;4.200;2024-01-30T04:19:23;12.40;;;8.00;;
24157;SDS011;12316;50.904;4.200;2024-01-30T04:21:49;15.05;;;8.05;;
24157;SDS011;12316;50.904;4.200;2024-01-30T04:24:15;15.68;;;7.95;;
24157;SDS011;12316;50.904;4.200;2024-01-30T04:26:43;13.80;;;7.60;;
24157;SDS011;12316;50.904;4.200;2024-01-30T04:29:09;13.30;;;7.47;;
24157;SDS011;12316;50.904;4.200;2024-01-30T04:31:36;13.00;;;7.50;;
24157;SDS011;12316;50.904;4.200;2024-01-30T04:34:02;15.45;;;7.80;;
24157;SDS011;12316;50.904;4.200;2024-01-30T04:36:27;16.73;;;8.38;;
24157;SDS011;12316;50.904;4.200;2024-01-30T04:38:53;13.30;;;8.10;;
24157;SDS011;12316;50.904;4.200;2024-01-30T04:41:18;13.77;;;8.07;;
24157;SDS011;12316;50.904;4.200;2024-01-30T04:43:44;16.48;;;8.23;;
24157;SDS011;12316;50.904;4.200;2024-01-30T04:46:09;15.15;;;8.13;;
24157;SDS011;12316;50.904;4.200;2024-01-30T04:48:35;14.68;;;8.55;;
24157;SDS011;12316;50.904;4.200;2024-01-30T04:51:00;15.48;;;8.82;;
24157;SDS011;12316;50.904;4.200;2024-01-30T04:53:29;17.27;;;9.27;;
24157;SDS011;12316;50.904;4.200;2024-01-30T04:55:56;17.90;;;8.52;;
24157;SDS011;12316;50.904;4.200;2024-01-30T04:58:21;16.17;;;8.95;;
24157;SDS011;12316;50.904;4.200;2024-01-30T05:00:47;18.40;;;9.15;;
24157;SDS011;12316;50.904;4.200;2024-01-30T05:03:16;15.52;;;9.25;;
24157;SDS011;12316;50.904;4.200;2024-01-30T05:05:42;18.13;;;8.98;;
24157;SDS011;12316;50.904;4.200;2024-01-30T05:08:08;18.70;;;9.02;;
24157;SDS011;12316;50.904;4.200;2024-01-30T05:10:33;15.98;;;8.82;;
24157;SDS011;12316;50.904;4.200;2024-01-30T05:12:59;18.13;;;8.85;;
24157;SDS011;12316;50.904;4.200;2024-01-30T05:15:25;14.40;;;8.90;;
24157;SDS011;12316;50.904;4.200;2024-01-30T05:17:50;14.93;;;9.00;;
24157;SDS011;12316;50.904;4.200;2024-01-30T05:20:16;17.02;;;9.27;;
24157;SDS011;12316;50.904;4.200;2024-01-30T05:22:42;15.73;;;9.15;;
24157;SDS011;12316;50.904;4.200;2024-01-30T05:25:10;17.33;;;9.20;;
24157;SDS011;12316;50.904;4.200;2024-01-30T05:27:37;16.20;;;9.30;;
24157;SDS011;12316;50.904;4.200;2024-01-30T05:30:03;17.35;;;9.55;;
24157;SDS011;12316;50.904;4.200;2024-01-30T05:32:29;17.33;;;9.68;;
24157;SDS011;12316;50.904;4.200;2024-01-30T05:34:55;17.63;;;8.93;;
24157;SDS011;12316;50.904;4.200;2024-01-30T05:37:20;17.95;;;9.13;;
24157;SDS011;12316;50.904;4.200;2024-01-30T05:39:46;20.70;;;9.60;;
24157;SDS011;12316;50.904;4.200;2024-01-30T05:42:12;16.30;;;9.13;;
24157;SDS011;12316;50.904;4.200;2024-01-30T05:44:37;15.82;;;9.38;;
24157;SDS011;12316;50.904;4.200;2024-01-30T05:47:03;19.25;;;9.98;;
24157;SDS011;12316;50.904;4.200;2024-01-30T05:49:29;19.77;;;8.80;;
24157;SDS011;12316;50.904;4.200;2024-01-30T05:51:54;18.88;;;9.50;;
24157;SDS011;12316;50.904;4.200;2024-01-30T05:54:20;14.95;;;8.80;;
24157;SDS011;12316;50.904;4.200;2024-01-30T05:56:46;14.45;;;9.02;;
24157;SDS011;12316;50.904;4.200;2024-01-30T05:59:11;16.85;;;8.77;;
24157;SDS011;12316;50.904;4.200;2024-01-30T06:01:37;17.25;;;8.63;;
24157;SDS011;12316;50.904;4.200;2024-01-30T06:04:03;16.10;;;8.77;;
24157;SDS011;12316;50.904;4.200;2024-01-30T06:06:28;16.88;;;8.90;;
24157;SDS011;12316;50.904;4.200;2024-01-30T06:08:54;14.65;;;8.93;;
24157;SDS011;12316;50.904;4.200;2024-01-30T06:11:21;16.48;;;9.05;;
24157;SDS011;12316;50.904;4.200;2024-01-30T06:13:46;17.65;;;8.95;;
24157;SDS011;12316;50.904;4.200;2024-01-30T06:16:12;20.38;;;9.23;;
24157;SDS011;12316;50.904;4.200;2024-01-30T06:18:38;17.92;;;8.85;;
24157;SDS011;12316;50.904;4.200;2024-01-30T06:21:04;17.52;;;8.27;;
24157;SDS011;12316;50.904;4.200;2024-01-30T06:23:30;17.42;;;9.30;;
24157;SDS011;12316;50.904;4.200;2024-01-30T06:25:56;17.48;;;9.45;;
24157;SDS011;12316;50.904;4.200;2024-01-30T06:28:21;18.27;;;9.27;;
24157;SDS011;12316;50.904;4.200;2024-01-30T06:30:47;21.48;;;9.93;;
24157;SDS011;12316;50.904;4.200;2024-01-30T06:33:12;20.83;;;9.00;;
24157;SDS011;12316;50.904;4.200;2024-01-30T06:35:41;19.38;;;9.93;;
24157;SDS011;12316;50.904;4.200;2024-01-30T06:38:07;20.90;;;9.93;;
24157;SDS011;12316;50.904;4.200;2024-01-30T06:40:32;21.52;;;9.50;;
24157;SDS011;12316;50.904;4.200;2024-01-30T06:42:58;22.83;;;10.52;;
24157;SDS011;12316;50.904;4.200;2024-01-30T06:45:23;22.13;;;9.93;;
24157;SDS011;12316;50.904;4.200;2024-01-30T06:47:49;24.67;;;10.27;;
24157;SDS011;12316;50.904;4.200;2024-01-30T06:50:15;23.85;;;10.88;;
24157;SDS011;12316;50.904;4.200;2024-01-30T06:52:40;24.08;;;10.77;;
24157;SDS011;12316;50.904;4.200;2024-01-30T06:55:06;21.40;;;9.82;;
24157;SDS011;12316;50.904;4.200;2024-01-30T06:57:32;20.73;;;10.48;;
24157;SDS011;12316;50.904;4.200;2024-01-30T06:59:58;22.10;;;10.60;;
24157;SDS011;12316;50.904;4.200;2024-01-30T07:02:23;24.05;;;10.57;;
24157;SDS011;12316;50.904;4.200;2024-01-30T07:04:49;21.17;;;10.20;;
24157;SDS011;12316;50.904;4.200;2024-01-30T07:07:15;25.15;;;10.88;;
24157;SDS011;12316;50.904;4.200;2024-01-30T07:09:41;21.20;;;10.45;;
24157;SDS011;12316;50.904;4.200;2024-01-30T07:12:06;23.95;;;11.73;;
24157;SDS011;12316;50.904;4.200;2024-01-30T07:14:32;26.48;;;10.93;;
24157;SDS011;12316;50.904;4.200;2024-01-30T07:16:58;25.98;;;11.45;;
24157;SDS011;12316;50.904;4.200;2024-01-30T07:19:24;29.33;;;11.25;;
24157;SDS011;12316;50.904;4.200;2024-01-30T07:21:49;23.33;;;10.57;;
24157;SDS011;12316;50.904;4.200;2024-01-30T07:24:15;19.92;;;9.50;;
24157;SDS011;12316;50.904;4.200;2024-01-30T07:26:40;22.15;;;9.73;;
24157;SDS011;12316;50.904;4.200;2024-01-30T07:29:06;18.30;;;8.50;;
24157;SDS011;12316;50.904;4.200;2024-01-30T07:31:32;19.08;;;9.45;;
24157;SDS011;12316;50.904;4.200;2024-01-30T07:33:57;14.60;;;8.55;;
24157;SDS011;12316;50.904;4.200;2024-01-30T07:36:23;15.27;;;8.55;;
24157;SDS011;12316;50.904;4.200;2024-01-30T07:38:48;12.48;;;7.88;;
24157;SDS011;12316;50.904;4.200;2024-01-30T07:41:14;13.90;;;7.88;;
24157;SDS011;12316;50.904;4.200;2024-01-30T07:43:39;11.77;;;7.82;;
24157;SDS011;12316;50.904;4.200;2024-01-30T07:46:05;12.07;;;7.90;;
24157;SDS011;12316;50.904;4.200;2024-01-30T07:48:31;12.77;;;7.63;;
24157;SDS011;12316;50.904;4.200;2024-01-30T07:50:58;11.38;;;7.55;;
24157;SDS011;12316;50.904;4.200;2024-01-30T07:53:24;12.13;;;7.60;;
24157;SDS011;12316;50.904;4.200;2024-01-30T07:55:50;10.98;;;7.28;;
24157;SDS011;12316;50.904;4.200;2024-01-30T07:58:16;13.45;;;7.63;;
24157;SDS011;12316;50.904;4.200;2024-01-30T08:00:41;9.95;;;7.15;;
24157;SDS011;12316;50.904;4.200;2024-01-30T08:03:07;15.20;;;8.02;;
24157;SDS011;12316;50.904;4.200;2024-01-30T08:05:33;13.43;;;8.13;;
24157;SDS011;12316;50.904;4.200;2024-01-30T08:07:58;13.52;;;7.43;;
24157;SDS011;12316;50.904;4.200;2024-01-30T08:10:24;10.85;;;7.30;;
24157;SDS011;12316;50.904;4.200;2024-01-30T08:12:50;10.32;;;7.75;;
24157;SDS011;12316;50.904;4.200;2024-01-30T08:15:16;10.98;;;7.57;;
24157;SDS011;12316;50.904;4.200;2024-01-30T08:17:41;14.15;;;7.63;;
24157;SDS011;12316;50.904;4.200;2024-01-30T08:20:07;11.38;;;7.53;;
24157;SDS011;12316;50.904;4.200;2024-01-30T08:22:35;10.95;;;7.30;;
24157;SDS011;12316;50.904;4.200;2024-01-30T08:25:03;11.10;;;7.75;;
24157;SDS011;12316;50.904;4.200;2024-01-30T08:27:29;11.63;;;7.65;;
24157;SDS011;12316;50.904;4.200;2024-01-30T08:29:54;10.95;;;7.32;;
24157;SDS011;12316;50.904;4.200;2024-01-30T08:32:20;12.85;;;7.78;;
24157;SDS011;12316;50.904;4.200;2024-01-30T08:34:46;11.68;;;7.45;;
24157;SDS011;12316;50.904;4.200;2024-01-30T08:37:11;10.43;;;7.30;;
24157;SDS011;12316;50.904;4.200;2024-01-30T08:39:41;13.07;;;7.32;;
24157;SDS011;12316;50.904;4.200;2024-01-30T08:42:07;11.15;;;7.53;;
24157;SDS011;12316;50.904;4.200;2024-01-30T08:44:33;10.43;;;7.20;;
24157;SDS011;12316;50.904;4.200;2024-01-30T08:46:58;12.07;;;7.45;;
24157;SDS011;12316;50.904;4.200;2024-01-30T08:49:24;11.00;;;7.45;;
24157;SDS011;12316;50.904;4.200;2024-01-30T08:51:50;10.07;;;7.10;;
24157;SDS011;12316;50.904;4.200;2024-01-30T08:54:15;13.00;;;7.82;;
24157;SDS011;12316;50.904;4.200;2024-01-30T08:56:41;10.40;;;7.38;;
24157;SDS011;12316;50.904;4.200;2024-01-30T08:59:07;13.02;;;7.55;;
24157;SDS011;12316;50.904;4.200;2024-01-30T09:01:32;11.35;;;7.50;;
24157;SDS011;12316;50.904;4.200;2024-01-30T09:03:58;11.07;;;7.30;;
24157;SDS011;12316;50.904;4.200;2024-01-30T09:06:24;11.20;;;7.35;;
24157;SDS011;12316;50.904;4.200;2024-01-30T09:08:52;10.75;;;7.53;;
24157;SDS011;12316;50.904;4.200;2024-01-30T09:11:18;9.80;;;7.32;;
24157;SDS011;12316;50.904;4.200;2024-01-30T09:13:44;11.43;;;7.93;;
24157;SDS011;12316;50.904;4.200;2024-01-30T09:16:10;9.88;;;7.50;;
24157;SDS011;12316;50.904;4.200;2024-01-30T09:18:35;13.25;;;8.27;;
24157;SDS011;12316;50.904;4.200;2024-01-30T09:21:01;14.88;;;8.40;;
24157;SDS011;12316;50.904;4.200;2024-01-30T09:23:28;15.23;;;7.60;;
24157;SDS011;12316;50.904;4.200;2024-01-30T09:25:54;10.85;;;8.05;;
24157;SDS011;12316;50.904;4.200;2024-01-30T09:28:20;17.70;;;8.35;;
24157;SDS011;12316;50.904;4.200;2024-01-30T09:30:46;11.40;;;7.53;;
24157;SDS011;12316;50.904;4.200;2024-01-30T09:33:12;16.63;;;8.45;;
24157;SDS011;12316;50.904;4.200;2024-01-30T09:35:38;16.10;;;8.85;;
24157;SDS011;12316;50.904;4.200;2024-01-30T09:38:04;14.82;;;8.32;;
24157;SDS011;12316;50.904;4.200;2024-01-30T09:40:29;12.93;;;8.63;;
24157;SDS011;12316;50.904;4.200;2024-01-30T09:42:55;14.05;;;9.13;;
24157;SDS011;12316;50.904;4.200;2024-01-30T09:45:23;18.25;;;8.93;;
24157;SDS011;12316;50.904;4.200;2024-01-30T09:47:50;14.98;;;9.63;;
24157;SDS011;12316;50.904;4.200;2024-01-30T09:50:16;23.20;;;10.40;;
24157;SDS011;12316;50.904;4.200;2024-01-30T09:52:42;19.95;;;10.10;;
24157;SDS011;12316;50.904;4.200;2024-01-30T09:55:12;19.10;;;10.32;;
24157;SDS011;12316;50.904;4.200;2024-01-30T09:57:38;19.20;;;10.38;;
24157;SDS011;12316;50.904;4.200;2024-01-30T10:00:05;21.90;;;9.90;;
24157;SDS011;12316;50.904;4.200;2024-01-30T10:02:35;19.65;;;8.43;;
24157;SDS011;12316;50.904;4.200;2024-01-30T10:05:01;12.73;;;8.10;;
24157;SDS011;12316;50.904;4.200;2024-01-30T10:07:28;16.00;;;8.40;;
24157;SDS011;12316;50.904;4.200;2024-01-30T10:09:55;16.88;;;7.90;;
24157;SDS011;12316;50.904;4.200;2024-01-30T10:12:21;16.48;;;8.77;;
24157;SDS011;12316;50.904;4.200;2024-01-30T10:14:48;16.83;;;8.95;;
24157;SDS011;12316;50.904;4.200;2024-01-30T10:17:13;19.17;;;8.48;;
24157;SDS011;12316;50.904;4.200;2024-01-30T10:19:39;14.57;;;8.52;;
24157;SDS011;12316;50.904;4.200;2024-01-30T10:22:05;15.85;;;6.90;;
24157;SDS011;12316;50.904;4.200;2024-01-30T10:24:32;15.75;;;5.75;;
24157;SDS011;12316;50.904;4.200;2024-01-30T10:26:59;10.40;;;4.32;;
24157;SDS011;12316;50.904;4.200;2024-01-30T10:29:25;12.65;;;4.07;;
24157;SDS011;12316;50.904;4.200;2024-01-30T10:32:00;11.25;;;3.60;;
24157;SDS011;12316;50.904;4.200;2024-01-30T10:34:27;8.25;;;2.75;;
24157;SDS011;12316;50.904;4.200;2024-01-30T10:37:15;5.70;;;2.05;;
24157;SDS011;12316;50.904;4.200;2024-01-30T10:39:41;7.20;;;1.92;;
24157;SDS011;12316;50.904;4.200;2024-01-30T10:42:12;4.60;;;1.88;;
24157;SDS011;12316;50.904;4.200;2024-01-30T10:44:43;6.43;;;1.90;;
24157;SDS011;12316;50.904;4.200;2024-01-30T10:47:16;9.95;;;1.98;;
24157;SDS011;12316;50.904;4.200;2024-01-30T10:49:50;4.65;;;1.88;;
24157;SDS011;12316;50.904;4.200;2024-01-30T10:52:17;4.15;;;1.60;;
24157;SDS011;12316;50.904;4.200;2024-01-30T10:54:44;6.20;;;1.67;;
24157;SDS011;12316;50.904;4.200;2024-01-30T10:57:10;6.57;;;1.58;;
24157;SDS011;12316;50.904;4.200;2024-01-30T10:59:38;6.30;;;1.85;;
24157;SDS011;12316;50.904;4.200;2024-01-30T11:02:05;4.35;;;1.63;;
24157;SDS011;12316;50.904;4.200;2024-01-30T11:04:37;4.22;;;1.52;;
24157;SDS011;12316;50.904;4.200;2024-01-30T11:07:25;4.85;;;1.38;;
24157;SDS011;12316;50.904;4.200;2024-01-30T11:09:51;8.43;;;1.38;;
24157;SDS011;12316;50.904;4.200;2024-01-30T11:12:23;3.97;;;1.20;;
24157;SDS011;12316;50.904;4.200;2024-01-30T11:14:50;4.50;;;1.10;;
24157;SDS011;12316;50.904;4.200;2024-01-30T11:17:51;6.80;;;1.20;;
24157;SDS011;12316;50.904;4.200;2024-01-30T11:20:20;3.35;;;1.17;;
24157;SDS011;12316;50.904;4.200;2024-01-30T11:22:58;2.80;;;1.05;;
24157;SDS011;12316;50.904;4.200;2024-01-30T11:25:25;4.97;;;0.80;;
24157;SDS011;12316;50.904;4.200;2024-01-30T11:27:51;3.08;;;0.68;;
24157;SDS011;12316;50.904;4.200;2024-01-30T11:30:22;2.40;;;0.55;;
24157;SDS011;12316;50.904;4.200;2024-01-30T11:33:04;2.40;;;0.52;;
24157;SDS011;12316;50.904;4.200;2024-01-30T11:35:32;2.42;;;0.65;;
24157;SDS011;12316;50.904;4.200;2024-01-30T11:37:59;2.80;;;0.50;;
24157;SDS011;12316;50.904;4.200;2024-01-30T11:40:29;3.10;;;0.70;;
24157;SDS011;12316;50.904;4.200;2024-01-30T11:42:56;2.78;;;0.82;;
24157;SDS011;12316;50.904;4.200;2024-01-30T11:45:23;3.95;;;0.75;;
24157;SDS011;12316;50.904;4.200;2024-01-30T11:47:49;2.92;;;0.73;;
24157;SDS011;12316;50.904;4.200;2024-01-30T11:50:15;4.25;;;0.82;;
24157;SDS011;12316;50.904;4.200;2024-01-30T11:52:41;3.17;;;0.68;;
24157;SDS011;12316;50.904;4.200;2024-01-30T11:55:08;2.53;;;0.68;;
24157;SDS011;12316;50.904;4.200;2024-01-30T11:57:35;2.47;;;0.65;;
24157;SDS011;12316;50.904;4.200;2024-01-30T12:00:02;3.58;;;0.75;;
24157;SDS011;12316;50.904;4.200;2024-01-30T12:02:35;3.30;;;0.60;;
24157;SDS011;12316;50.904;4.200;2024-01-30T12:05:05;3.75;;;0.82;;
24157;SDS011;12316;50.904;4.200;2024-01-30T12:07:32;2.38;;;0.57;;
24157;SDS011;12316;50.904;4.200;2024-01-30T12:09:58;3.45;;;0.55;;
24157;SDS011;12316;50.904;4.200;2024-01-30T12:12:24;5.18;;;0.82;;
24157;SDS011;12316;50.904;4.200;2024-01-30T12:14:52;4.38;;;0.80;;
24157;SDS011;12316;50.904;4.200;2024-01-30T12:20:02;2.70;;;0.70;;
24157;SDS011;12316;50.904;4.200;2024-01-30T12:22:41;3.72;;;0.60;;
24157;SDS011;12316;50.904;4.200;2024-01-30T12:25:08;3.78;;;0.90;;
24157;SDS011;12316;50.904;4.200;2024-01-30T12:27:35;2.42;;;0.68;;
24157;SDS011;12316;50.904;4.200;2024-01-30T12:30:01;1.58;;;0.47;;
24157;SDS011;12316;50.904;4.200;2024-01-30T12:32:30;4.75;;;0.98;;
24157;SDS011;12316;50.904;4.200;2024-01-30T12:34:55;2.67;;;0.65;;
24157;SDS011;12316;50.904;4.200;2024-01-30T12:37:22;5.15;;;1.05;;
24157;SDS011;12316;50.904;4.200;2024-01-30T12:39:49;3.05;;;0.68;;
24157;SDS011;12316;50.904;4.200;2024-01-30T12:42:19;5.30;;;0.90;;
24157;SDS011;12316;50.904;4.200;2024-01-30T12:44:48;3.92;;;1.08;;
24157;SDS011;12316;50.904;4.200;2024-01-30T12:47:14;5.63;;;2.28;;
24157;SDS011;12316;50.904;4.200;2024-01-30T12:49:42;5.22;;;1.00;;
24157;SDS011;12316;50.904;4.200;2024-01-30T12:52:09;5.85;;;0.90;;
24157;SDS011;12316;50.904;4.200;2024-01-30T12:54:39;4.45;;;0.80;;
24157;SDS011;12316;50.904;4.200;2024-01-30T12:57:05;3.20;;;0.88;;
24157;SDS011;12316;50.904;4.200;2024-01-30T12:59:31;3.63;;;0.80;;
24157;SDS011;12316;50.904;4.200;2024-01-30T13:01:57;4.00;;;1.08;;
24157;SDS011;12316;50.904;4.200;2024-01-30T13:04:24;4.72;;;0.88;;
24157;SDS011;12316;50.904;4.200;2024-01-30T13:06:49;4.72;;;1.10;;
24157;SDS011;12316;50.904;4.200;2024-01-30T13:09:15;6.38;;;0.93;;
24157;SDS011;12316;50.904;4.200;2024-01-30T13:11:40;5.57;;;1.10;;
24157;SDS011;12316;50.904;4.200;2024-01-30T13:14:06;6.50;;;1.35;;
24157;SDS011;12316;50.904;4.200;2024-01-30T13:16:32;5.13;;;1.17;;
24157;SDS011;12316;50.904;4.200;2024-01-30T13:18:58;3.60;;;1.10;;
24157;SDS011;12316;50.904;4.200;2024-01-30T13:21:23;9.35;;;1.40;;
24157;SDS011;12316;50.904;4.200;2024-01-30T13:23:49;4.20;;;0.95;;
24157;SDS011;12316;50.904;4.200;2024-01-30T13:26:18;5.05;;;1.13;;
24157;SDS011;12316;50.904;4.200;2024-01-30T13:28:44;4.78;;;1.00;;
24157;SDS011;12316;50.904;4.200;2024-01-30T13:31:09;4.05;;;1.10;;
24157;SDS011;12316;50.904;4.200;2024-01-30T13:33:35;5.63;;;1.13;;
24157;SDS011;12316;50.904;4.200;2024-01-30T13:36:01;5.03;;;1.08;;
24157;SDS011;12316;50.904;4.200;2024-01-30T13:38:26;4.43;;;0.90;;
24157;SDS011;12316;50.904;4.200;2024-01-30T13:40:52;5.72;;;1.30;;
24157;SDS011;12316;50.904;4.200;2024-01-30T13:43:17;3.60;;;0.90;;
24157;SDS011;12316;50.904;4.200;2024-01-30T13:45:43;4.15;;;1.00;;
24157;SDS011;12316;50.904;4.200;2024-01-30T13:48:09;6.45;;;0.90;;
24157;SDS011;12316;50.904;4.200;2024-01-30T13:50:34;4.90;;;1.00;;
24157;SDS011;12316;50.904;4.200;2024-01-30T13:53:01;5.25;;;1.17;;
24157;SDS011;12316;50.904;4.200;2024-01-30T13:55:28;7.13;;;0.90;;
24157;SDS011;12316;50.904;4.200;2024-01-30T13:57:53;4.18;;;0.90;;
24157;SDS011;12316;50.904;4.200;2024-01-30T14:00:20;6.22;;;1.05;;
24157;SDS011;12316;50.904;4.200;2024-01-30T14:02:47;6.05;;;1.17;;
24157;SDS011;12316;50.904;4.200;2024-01-30T14:05:13;4.90;;;1.60;;
24157;SDS011;12316;50.904;4.200;2024-01-30T14:07:39;4.85;;;1.30;;
24157;SDS011;12316;50.904;4.200;2024-01-30T14:10:09;4.07;;;1.30;;
24157;SDS011;12316;50.904;4.200;2024-01-30T14:12:36;3.03;;;1.20;;
24157;SDS011;12316;50.904;4.200;2024-01-30T14:15:02;3.53;;;1.40;;
24157;SDS011;12316;50.904;4.200;2024-01-30T14:17:27;4.97;;;1.50;;
24157;SDS011;12316;50.904;4.200;2024-01-30T14:19:53;7.50;;;1.73;;
24157;SDS011;12316;50.904;4.200;2024-01-30T14:22:18;3.67;;;1.65;;
24157;SDS011;12316;50.904;4.200;2024-01-30T14:24:44;5.78;;;1.98;;
24157;SDS011;12316;50.904;4.200;2024-01-30T14:27:10;5.82;;;2.10;;
24157;SDS011;12316;50.904;4.200;2024-01-30T14:29:36;6.03;;;2.10;;
24157;SDS011;12316;50.904;4.200;2024-01-30T14:32:02;6.32;;;2.10;;
24157;SDS011;12316;50.904;4.200;2024-01-30T14:34:29;4.90;;;1.67;;
24157;SDS011;12316;50.904;4.200;2024-01-30T14:36:55;5.28;;;1.17;;